sensor_id;sensor_type;location;lat;lon;timestamp;pressure;altitude;pressure_sealevel;temperature;humidity
2188;BME280;1100;52.014;8.540;2023-04-10T00:02:16;100889.41;;;2.46;69.86
2188;BME280;1100;52.014;8.540;2023-04-10T00:04:42;100893.31;;;2.45;70.09
2188;BME280;1100;52.014;8.540;2023-04-10T00:07:07;100892.16;;;2.46;70.32
2188;BME280;1100;52.014;8.540;2023-04-10T00:09:32;100891.28;;;2.42;69.87
2188;BME280;1100;52.014;8.540;2023-04-10T00:11:58;100890.00;;;2.36;69.85
2188;BME280;1100;52.014;8.540;2023-04-10T00:14:24;100879.38;;;2.34;70.02
2188;BME280;1100;52.014;8.540;2023-04-10T00:16:49;100873.91;;;2.34;70.35
2188;BME280;1100;52.014;8.540;2023-04-10T00:19:15;100875.91;;;2.38;70.44
2188;BME280;1100;52.014;8.540;2023-04-10T00:21:44;100876.72;;;2.38;70.47
2188;BME280;1100;52.014;8.540;2023-04-10T00:24:09;100875.13;;;2.37;70.34
2188;BME280;1100;52.014;8.540;2023-04-10T00:26:35;100867.25;;;2.35;70.27
2188;BME280;1100;52.014;8.540;2023-04-10T00:29:03;100873.81;;;2.31;70.54
2188;BME280;1100;52.014;8.540;2023-04-10T00:31:29;100869.44;;;2.26;70.54
2188;BME280;1100;52.014;8.540;2023-04-10T00:33:55;100860.06;;;2.27;70.81
2188;BME280;1100;52.014;8.540;2023-04-10T00:36:21;100853.78;;;2.27;70.49
2188;BME280;1100;52.014;8.540;2023-04-10T00:38:46;100853.78;;;2.27;70.81
2188;BME280;1100;52.014;8.540;2023-04-10T00:41:12;100854.25;;;2.32;71.02
2188;BME280;1100;52.014;8.540;2023-04-10T00:43:37;100845.63;;;2.30;70.53
2188;BME280;1100;52.014;8.540;2023-04-10T00:46:03;100851.03;;;2.27;70.56
2188;BME280;1100;52.014;8.540;2023-04-10T00:48:29;100845.09;;;2.24;70.75
2188;BME280;1100;52.014;8.540;2023-04-10T00:50:55;100844.09;;;2.33;71.11
2188;BME280;1100;52.014;8.540;2023-04-10T00:53:20;100843.44;;;2.40;71.18
2188;BME280;1100;52.014;8.540;2023-04-10T00:55:46;100840.34;;;2.65;72.08
2188;BME280;1100;52.014;8.540;2023-04-10T00:58:12;100833.44;;;2.98;72.39
2188;BME280;1100;52.014;8.540;2023-04-10T01:00:39;100836.91;;;3.49;73.50
2188;BME280;1100;52.014;8.540;2023-04-10T01:03:06;100845.38;;;3.98;73.42
2188;BME280;1100;52.014;8.540;2023-04-10T01:05:39;100835.78;;;4.60;74.15
2188;BME280;1100;52.014;8.540;2023-04-10T01:08:32;100833.44;;;5.11;73.37
2188;BME280;1100;52.014;8.540;2023-04-10T01:11:04;100836.84;;;5.50;73.06
2188;BME280;1100;52.014;8.540;2023-04-10T01:13:34;100839.69;;;5.72;72.64
2188;BME280;1100;52.014;8.540;2023-04-10T01:19:02;100835.94;;;6.17;72.70
2188;BME280;1100;52.014;8.540;2023-04-10T01:21:32;100831.28;;;6.43;72.68
2188;BME280;1100;52.014;8.540;2023-04-10T01:24:19;100826.94;;;6.60;72.05
2188;BME280;1100;52.014;8.540;2023-04-10T01:27:03;100838.41;;;6.69;71.89
2188;BME280;1100;52.014;8.540;2023-04-10T01:29:35;100833.69;;;6.92;72.04
2188;BME280;1100;52.014;8.540;2023-04-10T01:32:02;100834.44;;;7.03;71.26
2188;BME280;1100;52.014;8.540;2023-04-10T01:34:36;100836.41;;;7.10;71.26
2188;BME280;1100;52.014;8.540;2023-04-10T01:37:07;100832.47;;;7.11;70.92
2188;BME280;1100;52.014;8.540;2023-04-10T01:39:38;100835.22;;;7.15;70.58
2188;BME280;1100;52.014;8.540;2023-04-10T01:42:06;100826.53;;;7.20;70.64
2188;BME280;1100;52.014;8.540;2023-04-10T01:44:35;100832.84;;;7.20;70.53
2188;BME280;1100;52.014;8.540;2023-04-10T01:47:03;100826.91;;;7.22;70.33
2188;BME280;1100;52.014;8.540;2023-04-10T01:49:31;100835.22;;;7.26;69.98
2188;BME280;1100;52.014;8.540;2023-04-10T01:51:59;100828.47;;;7.30;69.97
2188;BME280;1100;52.014;8.540;2023-04-10T01:54:27;100828.84;;;7.36;69.90
2188;BME280;1100;52.014;8.540;2023-04-10T01:56:53;100824.91;;;7.33;69.42
2188;BME280;1100;52.014;8.540;2023-04-10T01:59:19;100822.56;;;7.28;69.59
2188;BME280;1100;52.014;8.540;2023-04-10T02:01:45;100819.00;;;7.24;69.23
2188;BME280;1100;52.014;8.540;2023-04-10T02:04:10;100806.78;;;7.21;69.29
2188;BME280;1100;52.014;8.540;2023-04-10T02:12:25;100808.31;;;7.30;68.87
2188;BME280;1100;52.014;8.540;2023-04-10T02:14:54;100800.81;;;7.30;68.93
2188;BME280;1100;52.014;8.540;2023-04-10T02:17:25;100796.47;;;7.33;69.10
2188;BME280;1100;52.014;8.540;2023-04-10T02:19:57;100800.44;;;7.35;69.00
2188;BME280;1100;52.014;8.540;2023-04-10T02:22:23;100795.66;;;7.36;68.81
2188;BME280;1100;52.014;8.540;2023-04-10T02:24:50;100792.91;;;7.36;68.70
2188;BME280;1100;52.014;8.540;2023-04-10T02:27:26;100791.31;;;7.42;68.70
2188;BME280;1100;52.014;8.540;2023-04-10T02:29:52;100786.56;;;7.46;68.50
2188;BME280;1100;52.014;8.540;2023-04-10T02:32:17;100782.59;;;7.47;68.16
2188;BME280;1100;52.014;8.540;2023-04-10T02:34:43;100776.28;;;7.47;67.95
2188;BME280;1100;52.014;8.540;2023-04-10T02:37:08;100781.81;;;7.47;67.90
2188;BME280;1100;52.014;8.540;2023-04-10T02:39:33;100776.66;;;7.49;67.68
2188;BME280;1100;52.014;8.540;2023-04-10T02:41:59;100775.88;;;7.48;67.48
2188;BME280;1100;52.014;8.540;2023-04-10T02:44:25;100777.47;;;7.50;67.47
2188;BME280;1100;52.014;8.540;2023-04-10T02:46:51;100786.16;;;7.48;67.59
2188;BME280;1100;52.014;8.540;2023-04-10T02:49:16;100779.44;;;7.45;67.72
2188;BME280;1100;52.014;8.540;2023-04-10T02:51:41;100783.41;;;7.44;67.48
2188;BME280;1100;52.014;8.540;2023-04-10T02:54:06;100784.19;;;7.45;67.23
2188;BME280;1100;52.014;8.540;2023-04-10T02:56:33;100794.06;;;7.42;67.04
2188;BME280;1100;52.014;8.540;2023-04-10T02:58:59;100779.84;;;7.44;67.33
2188;BME280;1100;52.014;8.540;2023-04-10T03:01:24;100781.44;;;7.45;66.98
2188;BME280;1100;52.014;8.540;2023-04-10T03:03:50;100779.84;;;7.44;67.18
2188;BME280;1100;52.014;8.540;2023-04-10T03:06:16;100774.75;;;7.39;66.76
2188;BME280;1100;52.014;8.540;2023-04-10T03:08:41;100772.38;;;7.33;66.72
2188;BME280;1100;52.014;8.540;2023-04-10T03:11:06;100777.09;;;7.33;66.87
2188;BME280;1100;52.014;8.540;2023-04-10T03:13:32;100772.78;;;7.28;66.91
2188;BME280;1100;52.014;8.540;2023-04-10T03:15:57;100774.78;;;7.28;66.89
2188;BME280;1100;52.014;8.540;2023-04-10T03:18:23;100777.53;;;7.28;66.92
2188;BME280;1100;52.014;8.540;2023-04-10T03:20:48;100780.69;;;7.26;66.66
2188;BME280;1100;52.014;8.540;2023-04-10T03:23:14;100766.06;;;7.26;66.61
2188;BME280;1100;52.014;8.540;2023-04-10T03:25:40;100767.63;;;7.27;66.76
2188;BME280;1100;52.014;8.540;2023-04-10T03:28:06;100773.97;;;7.27;66.39
2188;BME280;1100;52.014;8.540;2023-04-10T03:30:31;100768.84;;;7.29;66.62
2188;BME280;1100;52.014;8.540;2023-04-10T03:32:57;100762.50;;;7.25;66.26
2188;BME280;1100;52.014;8.540;2023-04-10T03:35:22;100753.44;;;7.25;66.62
2188;BME280;1100;52.014;8.540;2023-04-10T03:37:48;100752.25;;;7.22;66.38
2188;BME280;1100;52.014;8.540;2023-04-10T03:40:13;100747.53;;;7.22;66.34
2188;BME280;1100;52.014;8.540;2023-04-10T03:42:38;100756.22;;;7.25;66.23
2188;BME280;1100;52.014;8.540;2023-04-10T03:45:04;100749.88;;;7.20;66.33
2188;BME280;1100;52.014;8.540;2023-04-10T03:47:31;100746.31;;;7.23;66.06
2188;BME280;1100;52.014;8.540;2023-04-10T03:49:56;100746.31;;;7.23;66.07
2188;BME280;1100;52.014;8.540;2023-04-10T03:52:23;100750.25;;;7.30;65.97
2188;BME280;1100;52.014;8.540;2023-04-10T03:54:48;100751.81;;;7.34;65.87
2188;BME280;1100;52.014;8.540;2023-04-10T03:57:14;100749.84;;;7.35;65.90
2188;BME280;1100;52.014;8.540;2023-04-10T03:59:39;100747.06;;;7.39;65.85
2188;BME280;1100;52.014;8.540;2023-04-10T04:02:05;100742.72;;;7.38;65.78
2188;BME280;1100;52.014;8.540;2023-04-10T04:04:31;100743.50;;;7.38;65.30
2188;BME280;1100;52.014;8.540;2023-04-10T04:06:56;100741.16;;;7.37;65.43
2188;BME280;1100;52.014;8.540;2023-04-10T04:09:21;100740.34;;;7.36;65.43
2188;BME280;1100;52.014;8.540;2023-04-10T04:11:47;100740.34;;;7.36;65.06
2188;BME280;1100;52.014;8.540;2023-04-10T04:14:12;100736.41;;;7.33;64.99
2188;BME280;1100;52.014;8.540;2023-04-10T04:16:37;100733.28;;;7.28;65.08
2188;BME280;1100;52.014;8.540;2023-04-10T04:19:03;100744.34;;;7.24;65.20
2188;BME280;1100;52.014;8.540;2023-04-10T04:21:28;100746.72;;;7.22;65.03
2188;BME280;1100;52.014;8.540;2023-04-10T04:23:53;100734.09;;;7.21;64.82
2188;BME280;1100;52.014;8.540;2023-04-10T04:26:19;100738.81;;;7.24;64.95
2188;BME280;1100;52.014;8.540;2023-04-10T04:28:44;100738.81;;;7.24;64.82
2188;BME280;1100;52.014;8.540;2023-04-10T04:31:11;100738.81;;;7.24;64.93
2188;BME280;1100;52.014;8.540;2023-04-10T04:33:36;100736.47;;;7.22;64.90
2188;BME280;1100;52.014;8.540;2023-04-10T04:36:02;100745.91;;;7.25;64.84
2188;BME280;1100;52.014;8.540;2023-04-10T04:38:27;100742.38;;;7.21;64.64
2188;BME280;1100;52.014;8.540;2023-04-10T04:40:52;100752.25;;;7.22;64.82
2188;BME280;1100;52.014;8.540;2023-04-10T04:43:18;100750.69;;;7.21;64.73
2188;BME280;1100;52.014;8.540;2023-04-10T04:45:43;100745.16;;;7.21;64.59
2188;BME280;1100;52.014;8.540;2023-04-10T04:48:08;100748.31;;;7.23;64.05
2188;BME280;1100;52.014;8.540;2023-04-10T04:50:34;100737.63;;;7.25;64.16
2188;BME280;1100;52.014;8.540;2023-04-10T04:52:59;100755.41;;;7.20;64.10
2188;BME280;1100;52.014;8.540;2023-04-10T04:55:25;100747.16;;;7.17;64.20
2188;BME280;1100;52.014;8.540;2023-04-10T04:57:50;100751.47;;;7.18;64.17
2188;BME280;1100;52.014;8.540;2023-04-10T05:00:16;100743.97;;;7.22;64.31
2188;BME280;1100;52.014;8.540;2023-04-10T05:02:41;100745.91;;;7.25;64.21
2188;BME280;1100;52.014;8.540;2023-04-10T05:05:07;100748.28;;;7.27;64.27
2188;BME280;1100;52.014;8.540;2023-04-10T05:07:32;100743.56;;;7.27;63.96
2188;BME280;1100;52.014;8.540;2023-04-10T05:09:57;100751.03;;;7.30;63.99
2188;BME280;1100;52.014;8.540;2023-04-10T05:12:23;100746.28;;;7.34;63.89
2188;BME280;1100;52.014;8.540;2023-04-10T05:14:48;100746.69;;;7.37;64.24
2188;BME280;1100;52.014;8.540;2023-04-10T05:17:13;100748.66;;;7.36;63.96
2188;BME280;1100;52.014;8.540;2023-04-10T05:19:40;100743.50;;;7.38;63.83
2188;BME280;1100;52.014;8.540;2023-04-10T05:22:06;100756.13;;;7.43;64.07
2188;BME280;1100;52.014;8.540;2023-04-10T05:24:31;100745.06;;;7.46;64.31
2188;BME280;1100;52.014;8.540;2023-04-10T05:26:56;100749.75;;;7.53;63.72
2188;BME280;1100;52.014;8.540;2023-04-10T05:29:22;100755.28;;;7.60;63.83
2188;BME280;1100;52.014;8.540;2023-04-10T05:31:48;100752.88;;;7.63;63.80
2188;BME280;1100;52.014;8.540;2023-04-10T05:34:14;100757.63;;;7.66;63.60
2188;BME280;1100;52.014;8.540;2023-04-10T05:36:39;100750.47;;;7.72;63.63
2188;BME280;1100;52.014;8.540;2023-04-10T05:39:05;100746.09;;;7.78;63.28
2188;BME280;1100;52.014;8.540;2023-04-10T05:41:30;100748.03;;;7.89;63.13
2188;BME280;1100;52.014;8.540;2023-04-10T05:43:55;100742.44;;;7.92;63.23
2188;BME280;1100;52.014;8.540;2023-04-10T05:46:20;100753.09;;;7.97;63.42
2188;BME280;1100;52.014;8.540;2023-04-10T05:48:46;100739.59;;;8.07;63.11
2188;BME280;1100;52.014;8.540;2023-04-10T05:51:11;100750.25;;;8.12;62.97
2188;BME280;1100;52.014;8.540;2023-04-10T05:53:36;100743.09;;;8.18;62.98
2188;BME280;1100;52.014;8.540;2023-04-10T05:56:02;100734.31;;;8.27;62.68
2188;BME280;1100;52.014;8.540;2023-04-10T05:58:27;100739.75;;;8.38;62.09
2188;BME280;1100;52.014;8.540;2023-04-10T06:00:53;100734.13;;;8.49;62.07
2188;BME280;1100;52.014;8.540;2023-04-10T06:03:19;100736.09;;;8.56;61.39
2188;BME280;1100;52.014;8.540;2023-04-10T06:05:44;100735.59;;;8.68;61.66
2188;BME280;1100;52.014;8.540;2023-04-10T06:08:10;100739.88;;;8.77;61.13
2188;BME280;1100;52.014;8.540;2023-04-10T06:10:36;100736.63;;;8.85;61.23
2188;BME280;1100;52.014;8.540;2023-04-10T06:13:01;100740.84;;;8.97;60.67
2188;BME280;1100;52.014;8.540;2023-04-10T06:15:27;100737.59;;;9.06;60.48
2188;BME280;1100;52.014;8.540;2023-04-10T06:17:54;100726.41;;;9.14;60.83
2188;BME280;1100;52.014;8.540;2023-04-10T06:20:20;100724.38;;;9.18;60.50
2188;BME280;1100;52.014;8.540;2023-04-10T06:22:45;100722.78;;;9.20;61.01
2188;BME280;1100;52.014;8.540;2023-04-10T06:25:11;100714.47;;;9.20;60.64
2188;BME280;1100;52.014;8.540;2023-04-10T06:27:36;100708.91;;;9.20;60.27
2188;BME280;1100;52.014;8.540;2023-04-10T06:30:02;100709.34;;;9.15;59.99
2188;BME280;1100;52.014;8.540;2023-04-10T06:32:27;100710.16;;;9.16;59.94
2188;BME280;1100;52.014;8.540;2023-04-10T06:34:53;100704.59;;;9.16;59.98
2188;BME280;1100;52.014;8.540;2023-04-10T06:37:18;100704.22;;;9.14;59.57
2188;BME280;1100;52.014;8.540;2023-04-10T06:39:43;100714.53;;;9.13;59.54
2188;BME280;1100;52.014;8.540;2023-04-10T06:42:08;100714.53;;;9.13;59.96
2188;BME280;1100;52.014;8.540;2023-04-10T06:44:34;100719.25;;;9.16;60.01
2188;BME280;1100;52.014;8.540;2023-04-10T06:46:59;100707.31;;;9.19;60.15
2188;BME280;1100;52.014;8.540;2023-04-10T06:49:25;100712.00;;;9.26;59.96
2188;BME280;1100;52.014;8.540;2023-04-10T06:51:50;100705.56;;;9.37;59.67
2188;BME280;1100;52.014;8.540;2023-04-10T06:54:15;100707.03;;;9.45;59.81
2188;BME280;1100;52.014;8.540;2023-04-10T06:56:41;100708.94;;;9.52;59.51
2188;BME280;1100;52.014;8.540;2023-04-10T06:59:06;100708.06;;;9.58;59.91
2188;BME280;1100;52.014;8.540;2023-04-10T07:01:31;100709.88;;;9.69;59.64
2188;BME280;1100;52.014;8.540;2023-04-10T07:03:57;100715.69;;;9.78;59.57
2188;BME280;1100;52.014;8.540;2023-04-10T07:06:22;100709.19;;;9.89;59.60
2188;BME280;1100;52.014;8.540;2023-04-10T07:08:48;100709.03;;;10.00;59.40
2188;BME280;1100;52.014;8.540;2023-04-10T07:11:13;100710.50;;;10.08;59.14
2188;BME280;1100;52.014;8.540;2023-04-10T07:13:39;100708.34;;;10.19;58.99
2188;BME280;1100;52.014;8.540;2023-04-10T07:16:05;100710.13;;;10.33;59.63
2188;BME280;1100;52.014;8.540;2023-04-10T07:18:32;100704.31;;;10.48;59.30
2188;BME280;1100;52.014;8.540;2023-04-10T07:20:57;100710.84;;;10.62;59.02
2188;BME280;1100;52.014;8.540;2023-04-10T07:23:23;100704.19;;;10.79;58.99
2188;BME280;1100;52.014;8.540;2023-04-10T07:25:48;100692.88;;;10.90;58.61
2188;BME280;1100;52.014;8.540;2023-04-10T07:28:14;100702.94;;;11.04;58.58
2188;BME280;1100;52.014;8.540;2023-04-10T07:30:39;100692.44;;;11.12;56.49
2188;BME280;1100;52.014;8.540;2023-04-10T07:33:04;100690.44;;;11.13;56.84
2188;BME280;1100;52.014;8.540;2023-04-10T07:35:30;100691.44;;;11.23;56.62
2188;BME280;1100;52.014;8.540;2023-04-10T07:37:55;100691.56;;;11.36;56.54
2188;BME280;1100;52.014;8.540;2023-04-10T07:40:20;100696.31;;;11.55;54.65
2188;BME280;1100;52.014;8.540;2023-04-10T07:42:46;100693.59;;;11.89;54.90
2188;BME280;1100;52.014;8.540;2023-04-10T07:45:11;100693.09;;;12.27;54.62
2188;BME280;1100;52.014;8.540;2023-04-10T07:47:37;100700.19;;;12.62;53.53
2188;BME280;1100;52.014;8.540;2023-04-10T07:50:02;100680.97;;;12.80;54.05
2188;BME280;1100;52.014;8.540;2023-04-10T07:52:28;100686.16;;;12.95;51.11
2188;BME280;1100;52.014;8.540;2023-04-10T07:54:53;100671.63;;;12.87;52.59
2188;BME280;1100;52.014;8.540;2023-04-10T07:57:18;100665.47;;;12.79;51.99
2188;BME280;1100;52.014;8.540;2023-04-10T07:59:44;100660.19;;;12.68;52.49
2188;BME280;1100;52.014;8.540;2023-04-10T08:02:09;100656.59;;;12.68;52.86
2188;BME280;1100;52.014;8.540;2023-04-10T08:04:35;100647.34;;;12.71;52.31
2188;BME280;1100;52.014;8.540;2023-04-10T08:07:00;100650.84;;;12.75;52.80
2188;BME280;1100;52.014;8.540;2023-04-10T08:09:26;100648.38;;;12.77;51.64
2188;BME280;1100;52.014;8.540;2023-04-10T08:11:51;100632.22;;;12.72;52.33
2188;BME280;1100;52.014;8.540;2023-04-10T08:14:16;100631.13;;;12.82;52.65
2188;BME280;1100;52.014;8.540;2023-04-10T08:16:42;100629.94;;;12.96;52.08
2188;BME280;1100;52.014;8.540;2023-04-10T08:19:07;100624.56;;;13.02;52.30
2188;BME280;1100;52.014;8.540;2023-04-10T08:21:32;100625.38;;;13.16;51.30
2188;BME280;1100;52.014;8.540;2023-04-10T08:24:00;100616.88;;;13.19;51.61
2188;BME280;1100;52.014;8.540;2023-04-10T08:26:27;100609.88;;;13.28;50.09
2188;BME280;1100;52.014;8.540;2023-04-10T08:28:54;100626.41;;;13.48;49.30
2188;BME280;1100;52.014;8.540;2023-04-10T08:31:21;100630.34;;;13.64;48.73
2188;BME280;1100;52.014;8.540;2023-04-10T08:33:47;100628.44;;;13.87;48.62
2188;BME280;1100;52.014;8.540;2023-04-10T08:36:13;100616.91;;;13.98;47.81
2188;BME280;1100;52.014;8.540;2023-04-10T08:38:43;100615.19;;;14.13;46.74
2188;BME280;1100;52.014;8.540;2023-04-10T08:41:26;100611.03;;;14.18;47.58
2188;BME280;1100;52.014;8.540;2023-04-10T08:43:51;100604.81;;;14.36;47.96
2188;BME280;1100;52.014;8.540;2023-04-10T08:46:17;100597.56;;;14.61;47.09
2188;BME280;1100;52.014;8.540;2023-04-10T08:48:57;100603.06;;;14.87;48.10
2188;BME280;1100;52.014;8.540;2023-04-10T08:51:30;100606.09;;;15.34;47.74
2188;BME280;1100;52.014;8.540;2023-04-10T08:54:05;100600.09;;;15.54;47.08
2188;BME280;1100;52.014;8.540;2023-04-10T08:56:32;100600.56;;;15.53;47.31
2188;BME280;1100;52.014;8.540;2023-04-10T08:59:00;100590.88;;;15.13;45.92
2188;BME280;1100;52.014;8.540;2023-04-10T09:01:26;100589.09;;;14.74;46.45
2188;BME280;1100;52.014;8.540;2023-04-10T09:03:51;100597.28;;;14.46;46.41
2188;BME280;1100;52.014;8.540;2023-04-10T09:06:17;100586.06;;;14.24;46.66
2188;BME280;1100;52.014;8.540;2023-04-10T09:08:42;100588.34;;;14.16;47.28
2188;BME280;1100;52.014;8.540;2023-04-10T09:11:07;100583.47;;;14.07;47.39
2188;BME280;1100;52.014;8.540;2023-04-10T09:13:41;100574.03;;;14.14;46.57
2188;BME280;1100;52.014;8.540;2023-04-10T09:16:08;100561.41;;;14.09;46.82
2188;BME280;1100;52.014;8.540;2023-04-10T09:21:19;100551.25;;;14.38;47.14
2188;BME280;1100;52.014;8.540;2023-04-10T09:23:45;100556.97;;;14.56;45.98
2188;BME280;1100;52.014;8.540;2023-04-10T09:26:30;100566.78;;;14.39;45.55
2188;BME280;1100;52.014;8.540;2023-04-10T09:29:06;100535.38;;;14.35;45.93
2188;BME280;1100;52.014;8.540;2023-04-10T09:31:32;100533.09;;;14.65;46.00
2188;BME280;1100;52.014;8.540;2023-04-10T09:34:19;100525.16;;;14.86;46.41
2188;BME280;1100;52.014;8.540;2023-04-10T09:36:59;100529.00;;;15.11;44.95
2188;BME280;1100;52.014;8.540;2023-04-10T09:39:36;100528.66;;;15.09;43.61
2188;BME280;1100;52.014;8.540;2023-04-10T09:42:03;100524.97;;;15.21;45.39
2188;BME280;1100;52.014;8.540;2023-04-10T09:44:33;100526.47;;;15.63;44.70
2188;BME280;1100;52.014;8.540;2023-04-10T09:47:15;100512.00;;;15.65;43.12
2188;BME280;1100;52.014;8.540;2023-04-10T09:49:46;100528.84;;;15.84;42.43
2188;BME280;1100;52.014;8.540;2023-04-10T09:52:29;100507.03;;;15.88;43.25
2188;BME280;1100;52.014;8.540;2023-04-10T09:54:59;100515.19;;;16.14;43.25
2188;BME280;1100;52.014;8.540;2023-04-10T09:57:27;100496.78;;;16.22;41.45
2188;BME280;1100;52.014;8.540;2023-04-10T09:59:54;100495.41;;;16.17;41.76
2188;BME280;1100;52.014;8.540;2023-04-10T10:02:22;100491.81;;;16.17;42.90
2188;BME280;1100;52.014;8.540;2023-04-10T10:04:48;100482.88;;;16.47;42.55
2188;BME280;1100;52.014;8.540;2023-04-10T10:07:15;100487.63;;;16.74;42.50
2188;BME280;1100;52.014;8.540;2023-04-10T10:09:42;100488.53;;;16.80;40.77
2188;BME280;1100;52.014;8.540;2023-04-10T10:12:14;100478.00;;;16.66;39.55
2188;BME280;1100;52.014;8.540;2023-04-10T10:17:38;100460.03;;;16.01;39.27
2188;BME280;1100;52.014;8.540;2023-04-10T10:20:08;100453.94;;;15.93;39.10
2188;BME280;1100;52.014;8.540;2023-04-10T10:22:35;100465.50;;;16.05;40.27
2188;BME280;1100;52.014;8.540;2023-04-10T10:25:02;100460.31;;;15.94;39.29
2188;BME280;1100;52.014;8.540;2023-04-10T10:27:30;100446.34;;;16.03;39.38
2188;BME280;1100;52.014;8.540;2023-04-10T10:29:58;100435.41;;;16.15;39.24
2188;BME280;1100;52.014;8.540;2023-04-10T10:32:24;100434.44;;;16.27;39.97
2188;BME280;1100;52.014;8.540;2023-04-10T10:34:51;100420.78;;;16.63;39.78
2188;BME280;1100;52.014;8.540;2023-04-10T10:37:18;100427.41;;;16.85;39.70
2188;BME280;1100;52.014;8.540;2023-04-10T10:42:44;100426.91;;;17.45;39.10
2188;BME280;1100;52.014;8.540;2023-04-10T10:45:15;100433.84;;;17.59;38.92
2188;BME280;1100;52.014;8.540;2023-04-10T10:47:45;100425.03;;;17.66;37.83
2188;BME280;1100;52.014;8.540;2023-04-10T10:50:11;100421.56;;;17.47;38.37
2188;BME280;1100;52.014;8.540;2023-04-10T10:58:07;100410.53;;;17.18;37.67
2188;BME280;1100;52.014;8.540;2023-04-10T11:05:53;100394.97;;;17.33;38.24
2188;BME280;1100;52.014;8.540;2023-04-10T11:11:07;100377.72;;;17.49;37.99
2188;BME280;1100;52.014;8.540;2023-04-10T11:13:34;100383.75;;;17.33;38.38
2188;BME280;1100;52.014;8.540;2023-04-10T11:16:02;100381.97;;;17.45;39.06
2188;BME280;1100;52.014;8.540;2023-04-10T11:23:35;100364.31;;;17.44;39.13
2188;BME280;1100;52.014;8.540;2023-04-10T11:26:01;100358.47;;;17.33;38.76
2188;BME280;1100;52.014;8.540;2023-04-10T11:28:37;100337.75;;;17.30;39.04
2188;BME280;1100;52.014;8.540;2023-04-10T11:31:22;100341.38;;;16.97;38.38
2188;BME280;1100;52.014;8.540;2023-04-10T11:33:50;100347.13;;;16.44;37.86
2188;BME280;1100;52.014;8.540;2023-04-10T11:36:17;100334.63;;;16.21;38.64
2188;BME280;1100;52.014;8.540;2023-04-10T11:39:13;100331.53;;;16.09;38.96
2188;BME280;1100;52.014;8.540;2023-04-10T11:41:47;100326.25;;;16.02;38.47
2188;BME280;1100;52.014;8.540;2023-04-10T11:44:29;100322.66;;;16.01;39.70
2188;BME280;1100;52.014;8.540;2023-04-10T11:46:55;100324.16;;;16.21;39.79
2188;BME280;1100;52.014;8.540;2023-04-10T11:49:26;100323.16;;;16.34;40.27
2188;BME280;1100;52.014;8.540;2023-04-10T11:51:53;100331.53;;;16.43;39.11
2188;BME280;1100;52.014;8.540;2023-04-10T11:54:23;100316.06;;;16.23;38.90
2188;BME280;1100;52.014;8.540;2023-04-10T11:57:05;100303.31;;;16.13;39.62
2188;BME280;1100;52.014;8.540;2023-04-10T11:59:33;100301.94;;;16.08;39.50
2188;BME280;1100;52.014;8.540;2023-04-10T12:04:30;100290.25;;;16.10;39.19
2188;BME280;1100;52.014;8.540;2023-04-10T12:06:56;100287.63;;;15.97;38.74
2188;BME280;1100;52.014;8.540;2023-04-10T12:09:22;100285.44;;;16.01;38.66
2188;BME280;1100;52.014;8.540;2023-04-10T12:12:13;100279.69;;;16.04;38.54
2188;BME280;1100;52.014;8.540;2023-04-10T12:14:41;100277.63;;;16.14;38.72
2188;BME280;1100;52.014;8.540;2023-04-10T12:17:08;100263.88;;;16.16;39.23
2188;BME280;1100;52.014;8.540;2023-04-10T12:19:34;100265.16;;;16.40;39.95
2188;BME280;1100;52.014;8.540;2023-04-10T12:22:01;100272.81;;;16.64;38.84
2188;BME280;1100;52.014;8.540;2023-04-10T12:24:46;100261.59;;;16.64;38.00
2188;BME280;1100;52.014;8.540;2023-04-10T12:27:20;100248.09;;;16.53;37.84
2188;BME280;1100;52.014;8.540;2023-04-10T12:29:47;100246.69;;;16.58;39.12
2188;BME280;1100;52.014;8.540;2023-04-10T12:32:12;100232.03;;;16.78;39.21
2188;BME280;1100;52.014;8.540;2023-04-10T12:34:38;100228.56;;;16.83;38.33
2188;BME280;1100;52.014;8.540;2023-04-10T12:37:04;100241.16;;;16.88;38.37
2188;BME280;1100;52.014;8.540;2023-04-10T12:39:30;100227.41;;;16.90;37.58
2188;BME280;1100;52.014;8.540;2023-04-10T12:44:52;100213.50;;;16.96;37.96
2188;BME280;1100;52.014;8.540;2023-04-10T12:47:18;100225.94;;;17.19;38.36
2188;BME280;1100;52.014;8.540;2023-04-10T12:50:09;100214.25;;;17.51;38.13
2188;BME280;1100;52.014;8.540;2023-04-10T12:52:36;100206.78;;;17.48;37.30
2188;BME280;1100;52.014;8.540;2023-04-10T12:55:08;100194.19;;;17.43;37.20
2188;BME280;1100;52.014;8.540;2023-04-10T12:57:35;100195.16;;;17.40;37.05
2188;BME280;1100;52.014;8.540;2023-04-10T13:00:00;100191.66;;;17.30;36.79
2188;BME280;1100;52.014;8.540;2023-04-10T13:02:27;100194.34;;;17.09;36.64
2188;BME280;1100;52.014;8.540;2023-04-10T13:04:53;100170.97;;;16.88;36.61
2188;BME280;1100;52.014;8.540;2023-04-10T13:07:19;100168.34;;;16.84;37.24
2188;BME280;1100;52.014;8.540;2023-04-10T13:09:44;100168.97;;;17.03;38.14
2188;BME280;1100;52.014;8.540;2023-04-10T13:12:12;100166.09;;;17.43;38.22
2188;BME280;1100;52.014;8.540;2023-04-10T13:14:37;100172.91;;;17.72;36.42
2188;BME280;1100;52.014;8.540;2023-04-10T13:17:02;100164.50;;;17.72;35.61
2188;BME280;1100;52.014;8.540;2023-04-10T13:19:28;100160.63;;;17.70;36.22
2188;BME280;1100;52.014;8.540;2023-04-10T13:21:53;100149.16;;;17.73;35.27
2188;BME280;1100;52.014;8.540;2023-04-10T13:24:18;100133.44;;;17.81;34.71
2188;BME280;1100;52.014;8.540;2023-04-10T13:26:43;100134.09;;;17.91;35.61
2188;BME280;1100;52.014;8.540;2023-04-10T13:29:09;100130.22;;;18.10;35.14
2188;BME280;1100;52.014;8.540;2023-04-10T13:31:34;100110.94;;;18.17;34.60
2188;BME280;1100;52.014;8.540;2023-04-10T13:34:00;100111.00;;;18.23;35.50
2188;BME280;1100;52.014;8.540;2023-04-10T13:36:25;100098.22;;;18.49;35.39
2188;BME280;1100;52.014;8.540;2023-04-10T13:38:50;100110.81;;;18.53;35.36
2188;BME280;1100;52.014;8.540;2023-04-10T13:41:16;100104.38;;;18.26;33.60
2188;BME280;1100;52.014;8.540;2023-04-10T13:43:41;100094.53;;;18.16;34.13
2188;BME280;1100;52.014;8.540;2023-04-10T13:46:06;100101.50;;;18.21;33.20
2188;BME280;1100;52.014;8.540;2023-04-10T13:48:32;100096.75;;;17.91;33.80
2188;BME280;1100;52.014;8.540;2023-04-10T13:50:57;100076.91;;;17.59;33.46
2188;BME280;1100;52.014;8.540;2023-04-10T13:53:22;100068.88;;;17.51;33.74
2188;BME280;1100;52.014;8.540;2023-04-10T13:55:48;100059.22;;;17.52;34.67
2188;BME280;1100;52.014;8.540;2023-04-10T13:58:14;100060.25;;;17.55;34.63
2188;BME280;1100;52.014;8.540;2023-04-10T14:00:41;100061.91;;;17.47;35.03